createdAt,value
2019-02-04T00:04:41.934Z,1.40
2019-02-04T00:10:45.296Z,1.40
2019-02-04T00:16:47.529Z,1.40
2019-02-04T00:22:50.219Z,1.40
2019-02-04T00:28:53.791Z,1.40
2019-02-04T00:34:56.174Z,1.40
2019-02-04T00:40:58.486Z,1.40
2019-02-04T00:47:00.787Z,1.20
2019-02-04T00:53:02.978Z,1.30
2019-02-04T00:59:05.403Z,1.30
2019-02-04T01:05:07.559Z,1.30
2019-02-04T01:11:09.971Z,1.20
2019-02-04T01:17:12.323Z,1.30
2019-02-04T01:23:14.536Z,1.40
2019-02-04T01:29:16.899Z,1.20
2019-02-04T01:35:19.489Z,1.20
2019-02-04T01:41:23.493Z,1.30
2019-02-04T01:47:25.839Z,1.30
2019-02-04T01:53:28.113Z,1.30
2019-02-04T01:59:30.845Z,1.30
2019-02-04T02:05:33.074Z,1.40
2019-02-04T02:11:35.327Z,1.30
2019-02-04T02:17:38.537Z,1.30
2019-02-04T02:23:40.788Z,1.30
2019-02-04T02:29:43.035Z,1.30
2019-02-04T02:35:48.612Z,1.20
2019-02-04T02:41:50.895Z,1.30
2019-02-04T02:47:53.292Z,1.20
2019-02-04T02:53:55.525Z,1.20
2019-02-04T02:59:57.895Z,1.20
2019-02-04T03:06:00.182Z,1.20
2019-02-04T03:12:02.550Z,1.20
2019-02-04T03:18:04.659Z,1.10
2019-02-04T03:24:06.893Z,1.10
2019-02-04T03:30:30.437Z,1.20
2019-02-04T03:36:32.863Z,1.10
2019-02-04T03:42:35.223Z,1.20
2019-02-04T03:48:37.421Z,1.00
2019-02-04T03:54:40.709Z,1.00
2019-02-04T04:00:43.360Z,1.20
2019-02-04T04:06:45.697Z,1.10
2019-02-04T04:12:47.848Z,1.00
2019-02-04T04:18:50.095Z,1.20
2019-02-04T04:24:52.338Z,1.00
2019-02-04T04:30:54.466Z,1.20
2019-02-04T04:36:57.079Z,1.10
2019-02-04T04:43:00.335Z,1.10
2019-02-04T04:49:02.596Z,1.20
2019-02-04T04:55:05.983Z,1.10
2019-02-04T05:01:08.448Z,1.00
2019-02-04T05:07:10.563Z,0.90
2019-02-04T05:13:13.952Z,1.00
2019-02-04T05:19:16.183Z,1.00
2019-02-04T05:25:19.522Z,1.10
2019-02-04T05:31:22.730Z,1.10
2019-02-04T05:37:24.982Z,1.10
2019-02-04T05:43:27.396Z,1.00
2019-02-04T05:49:29.596Z,1.10
2019-02-04T05:55:32.106Z,1.10
2019-02-04T06:01:34.239Z,1.00
2019-02-04T06:07:36.635Z,1.10
2019-02-04T06:13:39.948Z,1.00
2019-02-04T06:19:42.290Z,1.00
2019-02-04T06:25:45.514Z,0.90
2019-02-04T06:31:47.760Z,1.00
2019-02-04T06:37:51.359Z,1.00
2019-02-04T06:43:53.789Z,0.90
2019-02-04T06:49:57.346Z,1.00
2019-02-04T06:55:59.707Z,1.00
2019-02-04T07:02:02.164Z,1.10
2019-02-04T07:08:05.572Z,1.10
2019-02-04T07:14:09.191Z,1.10
2019-02-04T07:20:14.365Z,1.10
2019-02-04T07:26:16.702Z,1.10
2019-02-04T07:32:19.013Z,1.10
2019-02-04T07:38:21.177Z,1.00
2019-02-04T07:44:23.373Z,1.10
2019-02-04T07:50:25.570Z,1.10
2019-02-04T07:56:27.731Z,1.20
2019-02-04T08:02:30.600Z,1.10
2019-02-04T08:08:33.119Z,1.10
2019-02-04T08:14:35.257Z,1.10
2019-02-04T08:20:37.496Z,1.20
2019-02-04T08:26:40.925Z,1.20
2019-02-04T08:32:43.288Z,1.10
2019-02-04T08:38:45.717Z,1.20
2019-02-04T08:44:48.075Z,1.20
2019-02-04T08:50:50.493Z,1.10
2019-02-04T08:56:52.830Z,1.20
2019-02-04T09:02:55.002Z,1.30
2019-02-04T09:08:57.854Z,1.30
2019-02-04T09:15:00.101Z,1.30
2019-02-04T09:21:02.911Z,1.40
2019-02-04T09:27:05.925Z,1.40
2019-02-04T09:33:08.015Z,1.60
2019-02-04T09:39:10.325Z,1.50
2019-02-04T09:45:14.863Z,1.60
2019-02-04T09:51:17.444Z,1.70
2019-02-04T09:57:19.810Z,2.00
2019-02-04T10:03:22.283Z,2.10
2019-02-04T10:09:26.116Z,2.40
2019-02-04T10:15:30.528Z,2.60
2019-02-04T10:21:32.719Z,2.70
2019-02-04T10:27:36.502Z,3.30
2019-02-04T10:33:39.289Z,3.60
2019-02-04T10:39:41.392Z,3.70
2019-02-04T10:45:43.662Z,3.90
2019-02-04T10:51:46.056Z,4.20
2019-02-04T10:57:48.821Z,4.50
2019-02-04T11:03:50.923Z,4.60
2019-02-04T11:09:53.143Z,5.20
2019-02-04T11:15:55.548Z,5.10
2019-02-04T11:21:57.724Z,5.10
2019-02-04T11:28:00.362Z,5.30
2019-02-04T11:34:02.484Z,5.60
2019-02-04T11:40:04.775Z,5.80
2019-02-04T11:46:07.085Z,5.70
2019-02-04T11:52:12.118Z,6.20
2019-02-04T11:58:14.562Z,6.40
2019-02-04T12:04:17.853Z,6.30
2019-02-04T12:10:32.360Z,6.70
2019-02-04T12:16:34.845Z,6.90
2019-02-04T12:22:37.018Z,7.10
2019-02-04T12:28:39.131Z,7.40
2019-02-04T12:34:41.371Z,8.00
2019-02-04T12:40:43.635Z,8.00
2019-02-04T12:46:46.135Z,8.20
2019-02-04T12:52:48.610Z,7.90
2019-02-04T12:58:55.715Z,7.30
2019-02-04T13:04:55.731Z,7.10
2019-02-04T13:10:58.802Z,6.70
2019-02-04T13:17:01.937Z,6.50
2019-02-04T13:23:04.329Z,6.40
2019-02-04T13:29:06.946Z,6.20
2019-02-04T13:35:09.494Z,6.10
2019-02-04T13:41:12.810Z,6.00
2019-02-04T13:47:15.268Z,5.80
2019-02-04T13:53:17.791Z,5.60
2019-02-04T13:59:20.447Z,5.20
2019-02-04T14:05:22.753Z,5.10
2019-02-04T14:11:26.120Z,5.10
2019-02-04T14:17:29.553Z,4.90
2019-02-04T14:23:31.678Z,4.90
2019-02-04T14:29:34.382Z,4.80
2019-02-04T14:35:36.566Z,4.80
2019-02-04T14:41:39.203Z,4.70
2019-02-04T14:48:02.799Z,4.60
2019-02-04T14:54:37.686Z,4.60
2019-02-04T15:01:10.295Z,4.50
2019-02-04T15:07:49.526Z,4.40
2019-02-04T15:14:30.723Z,4.30
2019-02-04T15:21:09.047Z,4.10
2019-02-04T15:27:33.057Z,4.00
2019-02-04T15:33:56.355Z,3.80
2019-02-04T15:40:08.179Z,3.70
2019-02-04T15:46:38.964Z,3.70
2019-02-04T15:52:45.612Z,3.60
2019-02-04T15:58:47.193Z,3.40
2019-02-04T16:04:50.979Z,3.20
2019-02-04T16:10:53.197Z,3.00
2019-02-04T16:16:55.817Z,2.90
2019-02-04T16:22:59.153Z,2.70
2019-02-04T16:29:01.599Z,2.60
2019-02-04T16:35:04.936Z,2.40
2019-02-04T16:41:07.486Z,2.30
2019-02-04T16:47:09.964Z,2.20
2019-02-04T16:53:12.457Z,2.00
2019-02-04T16:59:14.837Z,1.90
2019-02-04T17:05:18.466Z,1.80
2019-02-04T17:11:20.716Z,1.70
2019-02-04T17:17:23.033Z,1.60
2019-02-04T17:23:26.890Z,1.50
2019-02-04T17:29:29.330Z,1.50
2019-02-04T17:35:31.514Z,1.40
2019-02-04T17:41:33.735Z,1.30
2019-02-04T17:47:36.231Z,1.20
2019-02-04T17:53:39.214Z,1.10
2019-02-04T17:59:42.008Z,1.00
2019-02-04T18:05:44.303Z,0.90
2019-02-04T18:11:46.790Z,0.80
2019-02-04T18:17:49.188Z,0.80
2019-02-04T18:23:52.388Z,0.70
2019-02-04T18:29:54.656Z,0.70
2019-02-04T18:35:56.858Z,0.60
2019-02-04T18:41:59.466Z,0.40
2019-02-04T18:48:01.795Z,0.40
2019-02-04T18:54:04.407Z,0.30
2019-02-04T19:00:09.101Z,0.20
2019-02-04T19:06:11.339Z,0.00
2019-02-04T19:12:13.488Z,-0.10
2019-02-04T19:18:18.627Z,-0.20
2019-02-04T19:24:21.029Z,-0.10
2019-02-04T19:30:39.555Z,-0.20
2019-02-04T19:36:41.727Z,-0.20
2019-02-04T19:42:44.118Z,-0.20
2019-02-04T19:48:46.387Z,-0.30
2019-02-04T19:54:48.931Z,-0.40
2019-02-04T20:00:51.240Z,-0.60
2019-02-04T20:06:53.457Z,-0.60
2019-02-04T20:12:55.792Z,-0.60
2019-02-04T20:18:59.959Z,-0.70
2019-02-04T20:25:02.104Z,-0.70
2019-02-04T20:31:04.279Z,-0.80
2019-02-04T20:37:12.098Z,-0.80
2019-02-04T20:43:14.410Z,-0.70
2019-02-04T20:49:18.501Z,-0.70
2019-02-04T20:55:20.750Z,-0.80
2019-02-04T21:01:23.605Z,-0.90
2019-02-04T21:07:26.104Z,-1.00
2019-02-04T21:13:28.434Z,-1.00
2019-02-04T21:19:30.631Z,-1.10
2019-02-04T21:25:32.822Z,-1.10
2019-02-04T21:31:39.451Z,-1.10
2019-02-04T21:37:41.754Z,-1.10
2019-02-04T21:43:45.015Z,-1.10
2019-02-04T21:49:47.363Z,-1.20
2019-02-04T21:55:49.736Z,-1.40
2019-02-04T22:01:54.799Z,-1.40
2019-02-04T22:07:57.106Z,-1.50
2019-02-04T22:13:59.710Z,-1.60
2019-02-04T22:20:02.192Z,-1.70
2019-02-04T22:26:04.615Z,-1.80
2019-02-04T22:32:06.736Z,-1.80
2019-02-04T22:38:09.150Z,-1.90
2019-02-04T22:44:11.969Z,-1.90
2019-02-04T22:50:21.559Z,-2.00
2019-02-04T22:56:23.850Z,-2.00
2019-02-04T23:02:26.735Z,-2.10
2019-02-04T23:08:29.473Z,-2.10
2019-02-04T23:14:31.745Z,-2.10
2019-02-04T23:20:34.318Z,-2.20
2019-02-04T23:26:36.448Z,-2.30
2019-02-04T23:32:38.568Z,-2.30
2019-02-04T23:38:41.831Z,-2.30
2019-02-04T23:44:44.127Z,-2.40
2019-02-04T23:50:46.407Z,-2.40
2019-02-04T23:56:48.578Z,-2.40
